createdAt,value
2019-05-21T00:01:03.073Z,89.99
2019-05-21T00:03:33.045Z,89.95
2019-05-21T00:06:04.015Z,89.96
2019-05-21T00:08:34.172Z,89.88
2019-05-21T00:11:04.174Z,89.82
2019-05-21T00:13:34.675Z,89.83
2019-05-21T00:16:04.751Z,89.75
2019-05-21T00:18:34.995Z,89.78
2019-05-21T00:21:06.289Z,89.83
2019-05-21T00:23:36.643Z,89.92
2019-05-21T00:26:07.467Z,89.97
2019-05-21T00:28:40.975Z,90.01
2019-05-21T00:31:46.122Z,90.07
2019-05-21T00:34:51.409Z,90.07
2019-05-21T00:37:56.967Z,90.09
2019-05-21T00:41:02.319Z,90.29
2019-05-21T00:43:50.505Z,90.48
2019-05-21T00:46:20.613Z,90.57
2019-05-21T00:48:51.013Z,90.58
2019-05-21T00:51:25.562Z,90.54
2019-05-21T00:53:55.532Z,90.42
2019-05-21T00:56:28.652Z,90.25
2019-05-21T00:58:58.561Z,90.09
2019-05-21T01:01:30.036Z,90.01
2019-05-21T01:04:00.061Z,90.02
2019-05-21T01:06:34.503Z,89.98
2019-05-21T01:09:05.856Z,89.90
2019-05-21T01:11:37.752Z,89.85
2019-05-21T01:14:10.912Z,89.72
2019-05-21T01:16:41.428Z,89.87
2019-05-21T01:19:12.920Z,89.78
2019-05-21T01:21:42.756Z,89.64
2019-05-21T01:24:12.734Z,89.84
2019-05-21T01:26:42.624Z,89.93
2019-05-21T01:29:12.674Z,89.87
2019-05-21T01:31:42.910Z,89.81
2019-05-21T01:34:14.274Z,89.82
2019-05-21T01:36:44.295Z,89.77
2019-05-21T01:39:15.050Z,89.71
2019-05-21T01:41:45.345Z,89.61
2019-05-21T01:44:15.215Z,89.53
2019-05-21T01:46:45.303Z,89.47
2019-05-21T01:49:17.413Z,89.40
2019-05-21T01:51:49.390Z,89.43
2019-05-21T01:54:22.273Z,89.44
2019-05-21T01:56:52.268Z,89.43
2019-05-21T01:59:23.382Z,89.39
2019-05-21T02:01:53.322Z,89.30
2019-05-21T02:04:23.219Z,89.28
2019-05-21T02:06:53.610Z,89.29
2019-05-21T02:09:27.917Z,89.18
2019-05-21T02:11:58.729Z,89.19
2019-05-21T02:14:29.074Z,89.14
2019-05-21T02:16:59.795Z,89.09
2019-05-21T02:19:29.636Z,89.03
2019-05-21T02:21:59.643Z,88.92
2019-05-21T02:24:29.510Z,88.74
2019-05-21T02:27:00.203Z,88.69
2019-05-21T02:29:30.134Z,88.73
2019-05-21T02:32:00.117Z,88.67
2019-05-21T02:34:30.029Z,88.67
2019-05-21T02:37:00.239Z,88.64
2019-05-21T02:39:30.153Z,88.67
2019-05-21T02:42:00.012Z,88.69
2019-05-21T02:44:29.825Z,88.70
2019-05-21T02:46:59.785Z,88.67
2019-05-21T02:49:29.647Z,88.71
2019-05-21T02:52:02.242Z,88.64
2019-05-21T02:54:40.878Z,88.67
2019-05-21T02:57:07.247Z,88.68
2019-05-21T02:59:39.799Z,88.55
2019-05-21T03:02:24.079Z,88.62
2019-05-21T03:04:54.103Z,88.72
2019-05-21T03:07:25.646Z,88.67
2019-05-21T03:09:55.843Z,88.62
2019-05-21T03:12:25.733Z,88.61
2019-05-21T03:14:55.750Z,88.63
2019-05-21T03:17:25.663Z,88.64
2019-05-21T03:19:59.438Z,88.64
2019-05-21T03:22:29.333Z,88.67
2019-05-21T03:25:02.313Z,88.58
2019-05-21T03:27:30.931Z,88.50
2019-05-21T03:30:01.468Z,88.46
2019-05-21T03:32:32.085Z,88.34
2019-05-21T03:35:01.998Z,88.30
2019-05-21T03:37:32.042Z,88.14
2019-05-21T03:40:02.189Z,88.06
2019-05-21T03:42:32.221Z,88.12
2019-05-21T03:45:07.309Z,88.16
2019-05-21T03:47:35.436Z,88.03
2019-05-21T03:50:05.825Z,88.04
2019-05-21T03:52:37.402Z,87.99
2019-05-21T03:55:08.045Z,88.10
2019-05-21T03:57:38.434Z,88.17
2019-05-21T04:00:10.737Z,88.12
2019-05-21T04:02:43.397Z,88.23
2019-05-21T04:05:14.886Z,88.26
2019-05-21T04:07:46.158Z,88.38
2019-05-21T04:10:18.026Z,88.38
2019-05-21T04:13:06.430Z,88.41
2019-05-21T04:15:45.255Z,88.41
2019-05-21T04:18:22.940Z,88.53
2019-05-21T04:20:54.374Z,88.66
2019-05-21T04:23:24.675Z,88.74
2019-05-21T04:25:54.914Z,88.81
2019-05-21T04:28:25.095Z,88.73
2019-05-21T04:30:55.123Z,88.67
2019-05-21T04:33:26.612Z,88.71
2019-05-21T04:36:02.488Z,88.55
2019-05-21T04:38:33.204Z,88.43
2019-05-21T04:41:03.654Z,88.42
2019-05-21T04:43:34.126Z,88.33
2019-05-21T04:46:04.231Z,88.32
2019-05-21T04:48:34.155Z,88.33
2019-05-21T04:51:04.897Z,88.25
2019-05-21T04:53:34.721Z,88.27
2019-05-21T04:56:05.993Z,88.13
2019-05-21T04:58:35.824Z,87.86
2019-05-21T05:01:09.604Z,87.56
2019-05-21T05:03:40.091Z,87.32
2019-05-21T05:06:10.156Z,87.17
2019-05-21T05:08:40.437Z,87.16
2019-05-21T05:11:10.630Z,87.11
2019-05-21T05:13:41.569Z,87.00
2019-05-21T05:16:11.682Z,86.93
2019-05-21T05:18:41.820Z,86.73
2019-05-21T05:21:13.630Z,86.34
2019-05-21T05:23:44.008Z,85.73
2019-05-21T05:26:20.990Z,85.45
2019-05-21T05:28:53.720Z,85.12
2019-05-21T05:31:24.440Z,84.57
2019-05-21T05:33:56.769Z,83.65
2019-05-21T05:36:26.770Z,81.53
2019-05-21T05:38:56.734Z,80.86
2019-05-21T05:41:27.090Z,80.76
2019-05-21T05:43:57.206Z,80.89
2019-05-21T05:46:27.391Z,80.48
2019-05-21T05:49:03.135Z,80.12
2019-05-21T05:51:33.075Z,79.33
2019-05-21T05:54:03.069Z,78.89
2019-05-21T05:56:33.506Z,78.67
2019-05-21T05:59:03.511Z,78.30
2019-05-21T06:01:34.605Z,78.36
2019-05-21T06:04:04.746Z,78.71
2019-05-21T06:06:35.409Z,78.77
2019-05-21T06:09:09.220Z,78.22
2019-05-21T06:11:40.618Z,78.70
2019-05-21T06:14:10.801Z,78.80
2019-05-21T06:16:40.796Z,78.18
2019-05-21T06:19:10.967Z,78.63
2019-05-21T06:21:40.904Z,77.96
2019-05-21T06:24:13.526Z,77.53
2019-05-21T06:26:42.576Z,76.66
2019-05-21T06:29:12.849Z,75.40
2019-05-21T06:31:42.812Z,74.64
2019-05-21T06:34:12.876Z,74.20
2019-05-21T06:36:42.972Z,73.47
2019-05-21T06:39:13.025Z,74.28
2019-05-21T06:41:43.009Z,74.50
2019-05-21T06:44:12.988Z,74.41
2019-05-21T06:46:42.979Z,74.51
2019-05-21T06:49:12.957Z,74.23
2019-05-21T06:51:42.978Z,73.50
2019-05-21T06:54:13.243Z,73.17
2019-05-21T06:56:43.311Z,73.65
2019-05-21T06:59:13.340Z,74.06
2019-05-21T07:01:43.281Z,73.62
2019-05-21T07:04:13.320Z,73.02
2019-05-21T07:06:44.875Z,72.66
2019-05-21T07:09:15.027Z,71.83
2019-05-21T07:11:45.132Z,71.00
2019-05-21T07:14:16.346Z,69.83
2019-05-21T07:16:46.182Z,70.19
2019-05-21T07:19:16.206Z,69.99
2019-05-21T07:21:46.166Z,70.12
2019-05-21T07:24:16.947Z,70.32
2019-05-21T07:26:46.908Z,70.22
2019-05-21T07:29:16.866Z,70.04
2019-05-21T07:31:46.860Z,68.88
2019-05-21T07:34:17.097Z,68.19
2019-05-21T07:36:46.968Z,68.03
2019-05-21T07:39:17.003Z,68.11
2019-05-21T07:41:46.986Z,67.99
2019-05-21T07:44:19.125Z,68.40
2019-05-21T07:46:49.479Z,67.53
2019-05-21T07:49:20.532Z,68.22
2019-05-21T07:51:50.492Z,68.25
2019-05-21T07:54:20.469Z,68.82
2019-05-21T07:56:50.603Z,68.72
2019-05-21T07:59:20.620Z,68.40
2019-05-21T08:01:50.640Z,69.10
2019-05-21T08:04:20.512Z,69.62
2019-05-21T08:06:50.524Z,69.84
2019-05-21T08:09:20.630Z,69.48
2019-05-21T08:11:50.784Z,68.85
2019-05-21T08:14:21.865Z,68.78
2019-05-21T08:16:51.816Z,67.87
2019-05-21T08:19:22.017Z,68.05
2019-05-21T08:21:52.148Z,67.96
2019-05-21T08:24:22.262Z,67.63
2019-05-21T08:26:52.613Z,68.01
2019-05-21T08:29:23.598Z,68.32
2019-05-21T08:31:54.875Z,67.97
2019-05-21T08:34:25.306Z,67.67
2019-05-21T08:36:55.465Z,67.62
2019-05-21T08:39:28.655Z,68.25
2019-05-21T08:41:57.610Z,67.85
2019-05-21T08:44:27.971Z,67.91
2019-05-21T08:47:03.634Z,68.28
2019-05-21T08:49:34.613Z,68.21
2019-05-21T08:52:04.719Z,68.30
2019-05-21T08:54:50.724Z,67.84
2019-05-21T08:57:22.008Z,66.83
2019-05-21T08:59:52.152Z,66.55
2019-05-21T09:02:26.020Z,65.14
2019-05-21T09:04:56.090Z,63.57
2019-05-21T09:07:26.273Z,62.81
2019-05-21T09:10:00.820Z,61.97
2019-05-21T09:12:30.814Z,61.35
2019-05-21T09:15:04.085Z,60.42
2019-05-21T09:17:34.261Z,60.87
2019-05-21T09:20:06.898Z,60.00
2019-05-21T09:22:37.980Z,59.19
2019-05-21T09:25:08.299Z,59.34
2019-05-21T09:27:40.049Z,58.82
2019-05-21T09:30:11.369Z,58.96
2019-05-21T09:32:45.155Z,60.16
2019-05-21T09:35:15.342Z,58.58
2019-05-21T09:37:45.384Z,59.63
2019-05-21T09:40:15.789Z,59.87
2019-05-21T09:42:46.180Z,60.02
2019-05-21T09:45:18.198Z,60.17
2019-05-21T09:47:46.227Z,58.86
2019-05-21T09:50:16.338Z,58.67
2019-05-21T09:52:46.318Z,58.52
2019-05-21T09:55:17.126Z,57.22
2019-05-21T09:58:12.456Z,57.56
2019-05-21T10:01:08.429Z,57.00
2019-05-21T10:03:42.704Z,56.39
2019-05-21T10:06:14.129Z,56.86
2019-05-21T10:08:46.022Z,56.07
2019-05-21T10:11:16.741Z,54.29
2019-05-21T10:13:47.013Z,54.59
2019-05-21T10:16:17.953Z,53.39
2019-05-21T10:18:48.900Z,53.07
2019-05-21T10:21:26.589Z,54.16
2019-05-21T10:23:58.225Z,53.89
2019-05-21T10:26:31.136Z,53.79
2019-05-21T10:29:01.515Z,53.93
2019-05-21T10:31:33.411Z,52.92
2019-05-21T10:34:04.576Z,51.10
2019-05-21T10:36:35.467Z,50.47
2019-05-21T10:39:07.588Z,50.25
2019-05-21T10:41:38.009Z,49.42
2019-05-21T10:44:09.164Z,49.08
2019-05-21T10:46:39.869Z,48.48
2019-05-21T10:49:11.121Z,48.89
2019-05-21T10:51:41.848Z,48.97
2019-05-21T10:54:12.562Z,49.74
2019-05-21T10:56:47.777Z,50.01
2019-05-21T10:59:17.326Z,49.91
2019-05-21T11:02:13.187Z,50.06
2019-05-21T11:04:48.469Z,49.14
2019-05-21T11:07:21.967Z,47.50
2019-05-21T11:09:52.422Z,47.82
2019-05-21T11:12:23.403Z,49.50
2019-05-21T11:14:54.271Z,50.58
2019-05-21T11:17:25.523Z,51.44
2019-05-21T11:19:56.603Z,51.52
2019-05-21T11:22:27.859Z,51.14
2019-05-21T11:24:59.546Z,49.70
2019-05-21T11:27:31.703Z,49.08
2019-05-21T11:30:02.771Z,49.24
2019-05-21T11:32:35.043Z,49.12
2019-05-21T11:35:07.033Z,49.67
2019-05-21T11:37:37.349Z,50.33
2019-05-21T11:40:08.733Z,51.84
2019-05-21T11:42:39.395Z,51.86
2019-05-21T11:45:10.719Z,52.32
2019-05-21T11:47:41.187Z,51.99
2019-05-21T11:50:11.821Z,51.92
2019-05-21T11:52:41.813Z,51.91
2019-05-21T11:55:11.907Z,51.96
2019-05-21T11:57:42.310Z,50.96
2019-05-21T12:00:13.106Z,51.16
2019-05-21T12:02:43.151Z,50.99
2019-05-21T12:05:13.286Z,50.87
2019-05-21T12:07:43.721Z,50.53
2019-05-21T12:10:13.952Z,50.41
2019-05-21T12:12:44.175Z,49.99
2019-05-21T12:15:14.847Z,49.78
2019-05-21T12:17:45.871Z,49.16
2019-05-21T12:20:35.287Z,47.99
2019-05-21T12:22:50.837Z,46.93
2019-05-21T12:25:21.341Z,46.67
2019-05-21T12:27:51.841Z,46.61
2019-05-21T12:30:22.431Z,45.00
2019-05-21T12:32:52.582Z,44.85
2019-05-21T12:35:22.879Z,45.01
2019-05-21T12:37:53.707Z,44.91
2019-05-21T12:40:23.927Z,44.97
2019-05-21T12:42:54.823Z,44.75
2019-05-21T12:45:24.884Z,44.51
2019-05-21T12:47:55.011Z,44.67
2019-05-21T12:50:29.244Z,45.86
2019-05-21T12:52:59.255Z,46.49
2019-05-21T12:55:29.452Z,46.80
2019-05-21T12:57:59.615Z,47.64
2019-05-21T13:00:34.338Z,48.13
2019-05-21T13:03:04.454Z,48.35
2019-05-21T13:05:34.498Z,49.00
2019-05-21T13:08:06.262Z,49.55
2019-05-21T13:10:38.712Z,50.03
2019-05-21T13:13:09.223Z,56.55
2019-05-21T13:15:40.356Z,59.33
2019-05-21T13:18:12.286Z,62.50
2019-05-21T13:20:45.203Z,64.01
2019-05-21T13:23:18.050Z,63.90
2019-05-21T13:25:51.363Z,63.89
2019-05-21T13:28:22.066Z,63.49
2019-05-21T13:30:54.367Z,64.26
2019-05-21T13:33:29.789Z,65.10
2019-05-21T13:36:04.777Z,66.17
2019-05-21T13:38:38.273Z,66.86
2019-05-21T13:43:41.877Z,69.62
2019-05-21T13:46:17.671Z,69.99
2019-05-21T13:48:50.813Z,71.01
2019-05-21T13:51:24.071Z,72.34
2019-05-21T13:53:59.607Z,72.93
2019-05-21T13:56:32.919Z,72.90
2019-05-21T13:59:10.040Z,73.24
2019-05-21T14:01:44.172Z,73.79
2019-05-21T14:04:15.381Z,74.50
2019-05-21T14:06:45.480Z,73.68
2019-05-21T14:09:22.883Z,72.90
2019-05-21T14:11:56.240Z,72.36
2019-05-21T14:14:26.934Z,72.36
2019-05-21T14:16:58.091Z,71.74
2019-05-21T14:19:31.231Z,71.67
2019-05-21T14:22:01.791Z,71.03
2019-05-21T14:24:32.553Z,70.21
2019-05-21T14:27:02.914Z,68.81
2019-05-21T14:29:33.226Z,67.63
2019-05-21T14:32:03.987Z,67.51
2019-05-21T14:34:35.412Z,67.26
2019-05-21T14:37:06.931Z,66.97
2019-05-21T14:39:37.621Z,66.28
2019-05-21T14:42:07.801Z,64.42
2019-05-21T14:44:38.834Z,64.49
2019-05-21T14:47:09.709Z,64.95
2019-05-21T14:49:45.744Z,65.26
2019-05-21T14:52:16.293Z,66.17
2019-05-21T14:54:47.298Z,68.55
2019-05-21T14:57:17.756Z,69.47
2019-05-21T14:59:48.308Z,70.86
2019-05-21T15:02:19.817Z,71.29
2019-05-21T15:04:50.470Z,72.20
2019-05-21T15:07:20.907Z,72.63
2019-05-21T15:09:53.380Z,73.29
2019-05-21T15:12:24.380Z,73.35
2019-05-21T15:14:54.823Z,74.11
2019-05-21T15:17:25.182Z,74.42
2019-05-21T15:19:57.231Z,74.68
2019-05-21T15:22:27.833Z,74.40
2019-05-21T15:25:01.067Z,73.92
2019-05-21T15:27:33.692Z,73.81
2019-05-21T15:30:05.267Z,73.66
2019-05-21T15:32:35.361Z,73.33
2019-05-21T15:35:05.964Z,73.35
2019-05-21T15:37:36.531Z,73.01
2019-05-21T15:40:09.001Z,72.71
2019-05-21T15:42:39.555Z,72.11
2019-05-21T15:45:10.238Z,71.80
2019-05-21T15:47:41.268Z,72.14
2019-05-21T15:50:12.054Z,72.29
2019-05-21T15:52:42.637Z,72.30
2019-05-21T15:55:12.939Z,72.30
2019-05-21T15:57:43.852Z,71.99
2019-05-21T16:00:16.559Z,71.41
2019-05-21T16:02:46.626Z,71.08
2019-05-21T16:05:22.018Z,70.50
2019-05-21T16:07:52.455Z,70.10
2019-05-21T16:10:23.178Z,69.60
2019-05-21T16:12:54.466Z,69.18
2019-05-21T16:15:24.925Z,68.30
2019-05-21T16:17:56.142Z,67.52
2019-05-21T16:20:26.708Z,67.61
2019-05-21T16:22:56.953Z,67.39
2019-05-21T16:25:27.302Z,66.87
2019-05-21T16:27:57.599Z,66.89
2019-05-21T16:30:27.602Z,66.98
2019-05-21T16:32:58.183Z,66.87
2019-05-21T16:35:29.466Z,67.07
2019-05-21T16:38:00.574Z,67.58
2019-05-21T16:40:35.427Z,67.62
2019-05-21T16:43:05.940Z,67.68
2019-05-21T16:45:37.317Z,68.03
2019-05-21T16:48:08.258Z,68.08
2019-05-21T16:50:38.835Z,67.72
2019-05-21T16:53:09.729Z,68.39
2019-05-21T16:55:40.196Z,68.26
2019-05-21T16:58:11.101Z,68.40
2019-05-21T17:00:44.848Z,68.85
2019-05-21T17:03:15.263Z,69.51
2019-05-21T17:05:46.127Z,70.18
2019-05-21T17:08:16.544Z,70.73
2019-05-21T17:10:47.117Z,70.86
2019-05-21T17:13:20.833Z,70.80
2019-05-21T17:15:52.068Z,70.74
2019-05-21T17:18:23.416Z,70.56
2019-05-21T17:20:53.457Z,70.71
2019-05-21T17:23:23.493Z,71.20
2019-05-21T17:25:53.556Z,71.08
2019-05-21T17:28:23.722Z,71.73
2019-05-21T17:30:53.915Z,71.67
2019-05-21T17:33:23.962Z,71.72
2019-05-21T17:35:54.062Z,71.99
2019-05-21T17:38:25.256Z,72.04
2019-05-21T17:40:56.030Z,72.08
2019-05-21T17:43:29.194Z,72.19
2019-05-21T17:46:02.115Z,72.84
2019-05-21T17:48:32.838Z,73.47
2019-05-21T17:51:03.473Z,74.20
2019-05-21T17:53:35.111Z,74.83
2019-05-21T17:56:06.404Z,74.38
2019-05-21T17:58:36.471Z,74.26
2019-05-21T18:01:09.166Z,74.59
2019-05-21T18:03:39.158Z,74.87
2019-05-21T18:06:10.420Z,75.00
2019-05-21T18:08:40.656Z,74.70
2019-05-21T18:11:11.775Z,74.56
2019-05-21T18:13:42.725Z,75.12
2019-05-21T18:16:16.452Z,75.18
2019-05-21T18:18:50.231Z,75.19
2019-05-21T18:21:24.731Z,74.92
2019-05-21T18:23:54.927Z,75.25
2019-05-21T18:26:26.820Z,75.75
2019-05-21T18:28:59.441Z,75.65
2019-05-21T18:31:30.847Z,75.92
2019-05-21T18:34:01.031Z,76.13
2019-05-21T18:36:31.185Z,75.86
2019-05-21T18:39:01.248Z,75.76
2019-05-21T18:41:31.321Z,75.42
2019-05-21T18:44:01.592Z,75.28
2019-05-21T18:46:32.020Z,75.38
2019-05-21T18:49:02.751Z,75.58
2019-05-21T18:51:32.842Z,75.64
2019-05-21T18:54:03.011Z,75.76
2019-05-21T18:56:33.001Z,75.80
2019-05-21T18:59:03.203Z,75.79
2019-05-21T19:01:33.384Z,75.90
2019-05-21T19:04:07.500Z,75.67
2019-05-21T19:06:40.357Z,76.01
2019-05-21T19:09:10.545Z,75.85
2019-05-21T19:11:41.779Z,75.92
2019-05-21T19:14:12.858Z,76.11
2019-05-21T19:16:43.986Z,76.12
2019-05-21T19:19:18.358Z,76.29
2019-05-21T19:21:48.440Z,76.18
2019-05-21T19:24:18.418Z,76.23
2019-05-21T19:26:53.382Z,76.75
2019-05-21T19:31:57.408Z,76.61
2019-05-21T19:34:27.914Z,76.69
2019-05-21T19:36:59.644Z,76.49
2019-05-21T19:39:32.024Z,76.47
2019-05-21T19:42:02.144Z,76.78
2019-05-21T19:44:36.362Z,76.94
2019-05-21T19:47:07.244Z,77.01
2019-05-21T19:49:38.616Z,76.84
2019-05-21T19:52:08.703Z,76.63
2019-05-21T19:54:39.969Z,76.81
2019-05-21T19:57:11.088Z,76.67
2019-05-21T19:59:41.328Z,76.66
2019-05-21T20:02:12.135Z,77.07
2019-05-21T20:04:43.123Z,76.86
2019-05-21T20:07:15.277Z,76.66
2019-05-21T20:09:46.499Z,76.60
2019-05-21T20:12:16.723Z,76.00
2019-05-21T20:14:47.294Z,75.50
2019-05-21T20:17:18.243Z,75.63
2019-05-21T20:19:50.097Z,75.52
2019-05-21T20:22:20.376Z,75.57
2019-05-21T20:24:51.005Z,75.10
2019-05-21T20:27:21.002Z,74.57
2019-05-21T20:29:51.446Z,74.51
2019-05-21T20:32:23.349Z,74.86
2019-05-21T20:34:53.941Z,74.92
2019-05-21T20:37:29.901Z,74.82
2019-05-21T20:40:01.177Z,74.81
2019-05-21T20:42:32.980Z,74.82
2019-05-21T20:45:04.004Z,74.56
2019-05-21T20:47:34.372Z,74.47
2019-05-21T20:50:07.223Z,74.68
2019-05-21T20:52:37.576Z,74.67
2019-05-21T20:55:09.434Z,74.38
2019-05-21T20:57:39.898Z,74.34
2019-05-21T21:00:11.232Z,74.30
2019-05-21T21:02:41.981Z,74.34
2019-05-21T21:05:13.299Z,74.47
2019-05-21T21:07:44.309Z,74.14
2019-05-21T21:10:14.625Z,74.31
2019-05-21T21:12:46.879Z,74.43
2019-05-21T21:15:18.697Z,74.28
2019-05-21T21:17:48.770Z,74.33
2019-05-21T21:20:19.266Z,74.62
2019-05-21T21:22:49.650Z,74.26
2019-05-21T21:25:25.407Z,74.13
2019-05-21T21:27:55.656Z,73.95
2019-05-21T21:30:27.668Z,74.11
2019-05-21T21:32:58.138Z,74.40
2019-05-21T21:35:28.550Z,74.56
2019-05-21T21:38:00.149Z,74.48
2019-05-21T21:40:30.492Z,74.64
2019-05-21T21:43:01.236Z,74.48
2019-05-21T21:45:32.402Z,74.24
2019-05-21T21:48:02.953Z,74.23
2019-05-21T21:50:33.986Z,74.40
2019-05-21T21:53:04.335Z,74.31
2019-05-21T21:55:34.578Z,74.24
2019-05-21T21:58:04.823Z,74.43
2019-05-21T22:01:35.049Z,74.58
2019-05-21T22:04:11.214Z,74.32
2019-05-21T22:06:43.923Z,74.52
2019-05-21T22:09:19.189Z,74.14
2019-05-21T22:11:50.035Z,74.20
2019-05-21T22:14:20.212Z,74.01
2019-05-21T22:16:51.919Z,73.83
2019-05-21T22:19:23.680Z,73.48
2019-05-21T22:21:54.005Z,73.50
2019-05-21T22:24:24.936Z,73.86
2019-05-21T22:26:57.012Z,74.00
2019-05-21T22:29:27.377Z,74.06
2019-05-21T22:34:26.813Z,73.94
2019-05-21T22:36:59.989Z,73.73
2019-05-21T22:39:32.483Z,73.38
2019-05-21T22:42:02.860Z,73.85
2019-05-21T22:44:34.502Z,74.21
2019-05-21T22:47:05.487Z,74.27
2019-05-21T22:49:36.724Z,74.17
2019-05-21T22:52:06.902Z,74.22
2019-05-21T22:54:36.901Z,73.84
2019-05-21T22:57:07.260Z,73.69
2019-05-21T22:59:37.595Z,73.82
2019-05-21T23:02:10.682Z,73.75
2019-05-21T23:04:40.631Z,73.72
2019-05-21T23:07:10.807Z,73.65
2019-05-21T23:09:40.927Z,74.08
2019-05-21T23:12:11.171Z,74.03
2019-05-21T23:14:41.270Z,73.99
2019-05-21T23:17:11.216Z,73.77
2019-05-21T23:19:42.709Z,73.72
2019-05-21T23:22:16.430Z,73.56
2019-05-21T23:24:48.267Z,73.63
2019-05-21T23:27:19.614Z,73.36
2019-05-21T23:29:50.096Z,73.51
2019-05-21T23:32:20.941Z,73.70
2019-05-21T23:34:51.098Z,73.99
2019-05-21T23:37:24.149Z,73.87
2019-05-21T23:39:55.889Z,73.56
2019-05-21T23:42:29.753Z,73.49
2019-05-21T23:45:02.179Z,73.59
2019-05-21T23:47:32.802Z,73.73
2019-05-21T23:50:03.113Z,74.71
2019-05-21T23:52:35.288Z,74.79
2019-05-21T23:55:05.418Z,75.06
2019-05-21T23:57:37.608Z,75.14
